CYWJ

Déline Airport

Déline, Northwest Territories, Canada
METAR CYWJ 181600Z 31011KT 7SM -SN BKN024 M17/M20 A2994 RMK SC7 SLP166
Observed Flight Rules
Dec-18 @ 16:00 UTC (34 minutes ago) Marginal Visual Flight Rules
Wind Visibility Clouds Conditions
310° at 11 knots 7 miles
  • Broken at 2,400' AGL
  • Light Snow
Temperatures Readings
Current -17°C / 1°F
Dewpoint -20°C / -4°F
Humidity 78%
Altimeter 29.94" Hg
Pressure 1016.6 hPa
Elevation 176
METAR CYWJ 181600Z 31011KT 7SM -SN BKN024 M17/M20 A2994 RMK SC7 SLP166
Observed Flight Rules
Dec-18 @ 16:00 UTC
(34 minutes ago)
MVFR
Wind Visibility
310° at 11 knots 7 miles
Clouds
  • Broken at 2,400' AGL
Conditions
  • Light Snow
Temperature Dewpoint
-17°C / 1°F -20°C / -4°F
Humidity Altimeter Pressure
78% 29.94" Hg 1016.6 hPa